KDRI/DRI METAR and TAF weather

Enter ICAO airport designator
Station Type Date Time Source
KDRI METAR 2018/04/20 08:55 UTC NOAA

KDRI 200855Z AUTO 04003KT 10SM CLR 10/02 A3027 RMK AO2 T01000019


Station Type Date Time Source
KDRI Decoded METAR 2018/04/20 08:55 UTC NOAA

De Ridder, Beauregard Parish Airport, LA, United States (KDRI) 30-49-54N 093-20-23W
Apr 20, 2018 - 04:55 AM EDT / 2018.04.20 0855 UTC
Wind: from the NE (040 degrees) at 3 MPH (3 KT):0
Visibility: 10 mile(s):0
Sky conditions: clear
Temperature: 50.0 F (10.0 C)
Dew Point: 35.4 F (1.9 C)
Relative Humidity: 57%
Pressure (altimeter): 30.27 in. Hg (1025 hPa)
ob: KDRI 200855Z AUTO 04003KT 10SM CLR 10/02 A3027 RMK AO2 T01000019
cycle: 9

Station Type Date Time Source
KDRI TAF UTC NOAA

Error!


Example: see airport list